Meteo Giornale » Osservazioni meteo Arabia Saudita » Abha
ore: 22:00 - Osservazioni Meteo Abha
Lat. 18° 14' N Lon. 42° 39' E Alt. 2090 metri s.l.m.
21 °C
Sereno
Temp. 24 Ore
19 °C
32 °C
Nord
0 Km/h
Dew point 19 °C
Umidità 88 %
Visibilità 10 Km
Il sole sorge alle ore 05:54
Il sole tramonta alle ore 18:24
| Data e Ora | Cielo e Fenomeni | T °C | DP °C | Um. % | Pres. hPa | Vis. km | Vento km/h | |
|---|---|---|---|---|---|---|---|---|
| Oggi h: 22:00 | Sereno | 21 | 19 | 88 | 1023 | 10 | N 0 | |
| Oggi h: 21:00 | Sereno | 21 | 19 | 88 | 1023 | 10 | N 0 | |
| Oggi h: 20:00 | Sereno | 22 | 19 | 83 | 1022 | 10 | S 7.4 | |
| Oggi h: 19:00 | Sereno | 22 | 19 | 83 | 1022 | 10 | S/SO 13 | |
| Oggi h: 18:00 | Poco Nuvoloso | 24 | 18 | 69 | 1022 | 10 | S/SO 18.5 | |
| Oggi h: 17:00 | Poco Nuvoloso | 26 | 18 | 61 | 1021 | 10 | S/SO 18.5 | |
| Oggi h: 16:00 | Nuvoloso | 27 | 17 | 54 | 1021 | 10 | S/SO 14.8 | |
| Oggi h: 15:00 | Nuvoloso | 27 | 17 | 54 | 1021 | 10 | SO 24 | |
| Oggi h: 14:00 | Nuvoloso | 28 | 16 | 48 | 1021 | 10 | S/SO 24 | |
| Oggi h: 13:00 | Nuvoloso | 32 | -4 | 9 | 1022 | 10 | E/NE 14.8 | |
| Oggi h: 12:00 | Poco Nuvoloso | 31 | -2 | 11 | 1023 | 10 | SE 9.3 | |
| Oggi h: 11:00 | Sereno | 30 | -2 | 12 | 1024 | 10 | N/NO 14.8 | |
| Oggi h: 10:00 | Sereno | 29 | 3 | 18 | 1024 | 10 | N/NE 9.3 | |
| Oggi h: 09:00 | Poco Nuvoloso | 26 | 10 | 36 | 1024 | 10 | NO 9.3 | |
| Oggi h: 08:00 | Poco Nuvoloso | 24 | 11 | 43 | 1024 | 10 | N 0 | |
| Oggi h: 07:00 | Nuvoloso | 21 | 13 | 60 | 1024 | 10 | N 0 | |
| Oggi h: 06:00 | Poco Nuvoloso | 21 | 12 | 56 | 1023 | 10 | N 0 | |
| Oggi h: 05:00 | Sereno | 21 | 11 | 52 | 1022 | 10 | N 0 | |
| Oggi h: 04:00 | Sereno | 19 | 12 | 63 | 1022 | 10 | N 0 | |
| Oggi h: 03:00 | Sereno | 20 | 13 | 64 | 1022 | 10 | N 0 | |
| Oggi h: 02:00 | Sereno | 21 | 14 | 64 | 1023 | 10 | N 0 | |
| Oggi h: 01:00 | Sereno | 21 | 15 | 68 | 1023 | 10 | N 0 | |
| Oggi h: 00:00 | Sereno | 21 | 15 | 68 | 1023 | 10 | N 0 | |
| Ieri h: 23:00 | Sereno | 22 | 16 | 68 | 1024 | 10 | N 0 | |



